This is the latest recevied weather packets stored in our database for station/object KC8UZG. If no packets are shown the sender has not sent any weather packets the latest 1 day(s).
| Time | Temp. | Humidity | Pressure | Rain* | Wind** | Luminosity | Snow |
|---|---|---|---|---|---|---|---|
| 1778030733 | 9.44° C | 99% | 1007.3 hPa | 3.3 mm | - | 0 W/m² | - |
| 1778030139 | 10° C | 99% | 1007.6 hPa | 3.3 mm | - | 0 W/m² | - |
| 1778029518 | 10° C | 99% | 1007.6 hPa | 3.81 mm | - | 0 W/m² | - |
| 1778028925 | 10° C | 99% | 1007.6 hPa | 3.81 mm | - | 0 W/m² | - |
| 1778028330 | 10.56° C | 99% | 1007.5 hPa | 3.3 mm | - | 0 W/m² | - |
| 1778027115 | 12.22° C | 99% | 1007 hPa | 3.3 mm | - | 0 W/m² | - |
| 1778025333 | 15° C | 99% | 1006.3 hPa | 2.79 mm | - | 0 W/m² | - |
| 1778023524 | 15° C | 99% | 1006.3 hPa | 6.86 mm | - | 3 W/m² | - |
| 1778022336 | 15° C | 99% | 1006.5 hPa | 6.86 mm | - | 0 W/m² | - |
| 1778021742 | 15° C | 99% | 1006.8 hPa | 6.1 mm | - | 1 W/m² | - |
| 1778019933 | 15° C | 99% | - | 1.02 mm | - | 3 W/m² | - |
| 1778019339 | 15° C | 99% | 1007.3 hPa | 0.25 mm | - | 2 W/m² | - |
| 1778018718 | 15° C | 99% | 1007.3 hPa | 0.25 mm | - | 5 W/m² | - |
| 1778016936 | 15° C | 99% | - | 0.25 mm | - | 7 W/m² | - |
| 1778015720 | 15° C | 99% | 1007 hPa | 1.02 mm | - | 11 W/m² | - |
| 1778012130 | 15° C | 99% | 1007.4 hPa | 2.54 mm | - | 40 W/m² | - |
| 1778011536 | 15° C | 99% | 1007.6 hPa | 2.29 mm | - | 29 W/m² | - |
| 1778010320 | 16.11° C | 95% | 1007.6 hPa | 0.76 mm | - | 26 W/m² | - |
| 1778009727 | 17.78° C | 86% | 1007.3 hPa | 0 mm | - | 17 W/m² | - |
| 1778008539 | 18.33° C | 82% | - | 0 mm | - | 74 W/m² | - |
* Rain latest hour (hover to see other rain measurements)
** Current wind speed in m/s (hover to see current wind gust speed)